createdAt,value
2022-12-19T00:01:36.785Z,85.25
2022-12-19T00:04:09.407Z,85.46
2022-12-19T00:06:37.995Z,85.63
2022-12-19T00:09:10.447Z,85.25
2022-12-19T00:11:38.870Z,85.36
2022-12-19T00:14:06.212Z,85.55
2022-12-19T00:16:33.246Z,85.37
2022-12-19T00:19:00.967Z,85.43
2022-12-19T00:21:29.628Z,85.23
2022-12-19T00:23:56.752Z,85.55
2022-12-19T00:26:26.589Z,85.81
2022-12-19T00:28:55.144Z,85.87
2022-12-19T00:31:24.998Z,86.07
2022-12-19T00:33:51.965Z,85.72
2022-12-19T00:36:38.970Z,85.33
2022-12-19T00:39:08.388Z,85.16
2022-12-19T00:41:37.267Z,84.78
2022-12-19T00:44:10.245Z,84.92
2022-12-19T00:46:37.384Z,85.45
2022-12-19T00:49:04.974Z,85.48
2022-12-19T00:51:33.866Z,85.90
2022-12-19T00:54:01.535Z,85.93
2022-12-19T00:56:37.269Z,86.10
2022-12-19T00:59:05.474Z,85.99
2022-12-19T01:01:38.026Z,85.40
2022-12-19T01:06:53.489Z,85.78
2022-12-19T01:09:21.928Z,86.09
2022-12-19T01:12:07.326Z,85.87
2022-12-19T01:14:34.405Z,86.25
2022-12-19T01:17:01.132Z,86.14
2022-12-19T01:19:28.383Z,86.85
2022-12-19T01:21:55.238Z,86.20
2022-12-19T01:24:22.289Z,86.09
2022-12-19T01:26:49.060Z,85.80
2022-12-19T01:29:15.780Z,85.89
2022-12-19T01:31:42.627Z,86.74
2022-12-19T01:34:09.494Z,87.03
2022-12-19T01:36:40.228Z,87.25
2022-12-19T01:39:07.638Z,86.76
2022-12-19T01:41:34.597Z,86.64
2022-12-19T01:44:02.286Z,86.60
2022-12-19T01:46:50.664Z,86.90
2022-12-19T01:49:29.362Z,87.80
2022-12-19T01:51:59.106Z,87.75
2022-12-19T01:54:31.835Z,87.17
2022-12-19T01:56:59.441Z,87.90
2022-12-19T01:59:30.041Z,87.79
2022-12-19T02:02:02.264Z,87.83
2022-12-19T02:04:32.539Z,87.77
2022-12-19T02:07:00.135Z,88.28
2022-12-19T02:09:34.354Z,88.52
2022-12-19T02:12:01.275Z,88.51
2022-12-19T02:14:28.313Z,88.24
2022-12-19T02:17:03.354Z,88.99
2022-12-19T02:20:29.425Z,89.75
2022-12-19T02:23:36.540Z,90.05
2022-12-19T02:26:53.893Z,91.55
2022-12-19T02:29:30.494Z,92.09
2022-12-19T02:32:21.697Z,92.17
2022-12-19T02:35:08.471Z,92.89
2022-12-19T02:37:39.386Z,93.78
2022-12-19T02:40:11.145Z,93.23
2022-12-19T02:42:44.375Z,93.67
2022-12-19T02:45:22.758Z,93.87
2022-12-19T02:47:56.289Z,93.55
2022-12-19T02:50:23.341Z,93.66
2022-12-19T02:52:50.187Z,94.19
2022-12-19T02:55:20.814Z,94.26
2022-12-19T02:58:09.820Z,93.80
2022-12-19T03:00:42.778Z,94.70
2022-12-19T03:03:15.772Z,94.63
2022-12-19T03:06:09.097Z,94.69
2022-12-19T03:08:47.955Z,94.76
2022-12-19T03:11:15.762Z,94.91
2022-12-19T03:13:54.719Z,94.63
2022-12-19T03:16:21.571Z,95.18
2022-12-19T03:18:48.478Z,94.79
2022-12-19T03:21:22.424Z,94.50
2022-12-19T03:23:51.128Z,94.43
2022-12-19T03:26:22.164Z,94.81
2022-12-19T03:28:54.379Z,94.31
2022-12-19T03:31:23.854Z,93.78
2022-12-19T03:33:55.934Z,94.94
2022-12-19T03:36:28.066Z,94.27
2022-12-19T03:38:56.237Z,94.70
2022-12-19T03:41:45.086Z,94.39
2022-12-19T03:44:14.311Z,94.53
2022-12-19T03:46:44.021Z,95.22
2022-12-19T03:49:10.961Z,95.16
2022-12-19T03:52:16.505Z,95.26
2022-12-19T03:54:52.530Z,94.25
2022-12-19T03:57:52.983Z,94.32
2022-12-19T04:00:20.887Z,94.85
2022-12-19T04:02:50.277Z,95.12
2022-12-19T04:05:25.698Z,94.79
2022-12-19T04:07:55.600Z,94.91
2022-12-19T04:10:25.191Z,94.06
2022-12-19T04:12:56.649Z,94.70
2022-12-19T04:15:32.366Z,94.96
2022-12-19T04:18:00.206Z,95.50
2022-12-19T04:20:27.697Z,95.00
2022-12-19T04:23:00.454Z,95.76
2022-12-19T04:25:32.831Z,95.41
2022-12-19T04:28:06.770Z,95.55
2022-12-19T04:30:36.493Z,95.96
2022-12-19T04:33:04.235Z,96.30
2022-12-19T04:35:31.884Z,95.82
2022-12-19T04:37:58.770Z,95.77
2022-12-19T04:40:25.579Z,95.55
2022-12-19T04:42:52.449Z,95.59
2022-12-19T04:45:19.281Z,95.99
2022-12-19T04:47:46.079Z,95.25
2022-12-19T04:50:12.979Z,95.29
2022-12-19T04:52:39.978Z,95.21
2022-12-19T04:55:07.813Z,95.42
2022-12-19T04:57:34.578Z,95.76
2022-12-19T05:00:04.009Z,94.80
2022-12-19T05:02:31.190Z,94.56
2022-12-19T05:04:58.132Z,94.73
2022-12-19T05:07:24.906Z,94.72
2022-12-19T05:09:51.610Z,94.43
2022-12-19T05:12:18.471Z,94.40
2022-12-19T05:14:45.854Z,94.93
2022-12-19T05:17:12.688Z,94.74
2022-12-19T05:19:39.431Z,95.20
2022-12-19T05:22:06.301Z,94.76
2022-12-19T05:24:33.132Z,95.39
2022-12-19T05:27:00.267Z,95.33
2022-12-19T05:29:27.101Z,95.58
2022-12-19T05:31:53.955Z,96.00
2022-12-19T05:34:20.936Z,95.35
2022-12-19T05:36:47.668Z,95.81
2022-12-19T05:39:14.483Z,95.85
2022-12-19T05:41:41.638Z,95.89
2022-12-19T05:44:09.687Z,95.46
2022-12-19T05:46:36.713Z,96.29
2022-12-19T05:49:03.635Z,96.10
2022-12-19T05:51:31.050Z,96.08
2022-12-19T05:53:57.805Z,95.58
2022-12-19T05:56:24.654Z,95.67
2022-12-19T05:58:51.816Z,96.24
2022-12-19T06:01:21.495Z,96.34
2022-12-19T06:03:49.364Z,97.37
2022-12-19T06:06:18.993Z,96.55
2022-12-19T06:08:45.954Z,96.93
2022-12-19T06:11:14.068Z,96.92
2022-12-19T06:13:41.473Z,97.03
2022-12-19T06:16:13.138Z,96.78
2022-12-19T06:18:44.713Z,96.97
2022-12-19T06:21:20.301Z,97.45
2022-12-19T06:23:47.544Z,97.37
2022-12-19T06:26:19.395Z,96.84
2022-12-19T06:28:48.195Z,96.95
2022-12-19T06:31:15.984Z,96.83
2022-12-19T06:33:42.825Z,96.93
2022-12-19T06:36:16.953Z,97.26
2022-12-19T06:38:43.649Z,98.17
2022-12-19T06:41:29.915Z,98.54
2022-12-19T06:44:06.552Z,98.30
2022-12-19T06:46:33.886Z,98.67
2022-12-19T06:49:01.533Z,99.37
2022-12-19T06:51:29.057Z,99.37
2022-12-19T06:53:56.036Z,99.35
2022-12-19T06:56:23.175Z,100.00
2022-12-19T06:58:50.672Z,100.00
2022-12-19T07:01:41.218Z,100.00
2022-12-19T07:04:09.717Z,100.00
2022-12-19T07:06:36.621Z,99.88
2022-12-19T07:09:03.399Z,100.00
2022-12-19T07:11:30.143Z,100.00
2022-12-19T07:13:56.901Z,100.00
2022-12-19T07:16:24.690Z,100.00
2022-12-19T07:18:51.570Z,100.00
2022-12-19T07:21:18.407Z,100.00
2022-12-19T07:23:45.416Z,100.00
2022-12-19T07:26:12.502Z,100.00
2022-12-19T07:28:39.637Z,100.00
2022-12-19T07:31:06.446Z,100.00
2022-12-19T07:33:34.077Z,100.00
2022-12-19T07:36:00.867Z,100.00
2022-12-19T07:38:27.697Z,100.00
2022-12-19T07:40:54.429Z,100.00
2022-12-19T07:43:21.260Z,100.00
2022-12-19T07:45:54.658Z,100.00
2022-12-19T07:48:21.526Z,100.00
2022-12-19T07:50:49.262Z,100.00
2022-12-19T07:53:16.688Z,100.00
2022-12-19T07:55:43.518Z,100.00
2022-12-19T07:58:11.292Z,100.00
2022-12-19T08:00:38.428Z,100.00
2022-12-19T08:03:05.323Z,99.76
2022-12-19T08:05:34.846Z,99.42
2022-12-19T08:08:01.672Z,99.69
2022-12-19T08:10:28.520Z,100.00
2022-12-19T08:12:55.626Z,100.00
2022-12-19T08:15:22.566Z,100.00
2022-12-19T08:17:49.557Z,100.00
2022-12-19T08:20:16.379Z,100.00
2022-12-19T08:22:43.438Z,100.00
2022-12-19T08:25:10.369Z,100.00
2022-12-19T08:27:37.909Z,100.00
2022-12-19T08:30:05.687Z,100.00
2022-12-19T08:32:32.854Z,100.00
2022-12-19T08:34:59.872Z,100.00
2022-12-19T08:37:26.804Z,100.00
2022-12-19T08:39:53.565Z,100.00
2022-12-19T08:42:20.341Z,100.00
2022-12-19T08:44:47.130Z,100.00
2022-12-19T08:47:14.176Z,100.00
2022-12-19T08:49:41.350Z,100.00
2022-12-19T08:52:08.207Z,100.00
2022-12-19T08:54:35.181Z,100.00
2022-12-19T08:57:01.929Z,100.00
2022-12-19T08:59:31.830Z,100.00
2022-12-19T09:02:00.877Z,100.00
2022-12-19T09:06:00.267Z,100.00
2022-12-19T09:07:16.292Z,100.00
2022-12-19T09:09:44.329Z,100.00
2022-12-19T09:12:13.022Z,100.00
2022-12-19T09:14:39.839Z,100.00
2022-12-19T09:17:06.860Z,100.00
2022-12-19T09:19:33.885Z,100.00
2022-12-19T09:22:00.657Z,100.00
2022-12-19T09:24:27.563Z,100.00
2022-12-19T09:26:54.421Z,100.00
2022-12-19T09:29:21.977Z,100.00
2022-12-19T09:31:55.412Z,100.00
2022-12-19T09:34:36.900Z,100.00
2022-12-19T09:37:16.087Z,100.00
2022-12-19T09:39:45.401Z,100.00
2022-12-19T09:42:21.654Z,100.00
2022-12-19T09:45:05.927Z,100.00
2022-12-19T09:47:34.949Z,100.00
2022-12-19T09:50:02.130Z,100.00
2022-12-19T09:52:44.037Z,100.00
2022-12-19T09:55:25.126Z,100.00
2022-12-19T09:57:59.833Z,100.00
2022-12-19T10:00:35.466Z,100.00
2022-12-19T10:03:14.381Z,100.00
2022-12-19T10:07:06.790Z,100.00
2022-12-19T10:09:17.094Z,100.00
2022-12-19T10:12:47.795Z,100.00
2022-12-19T10:15:12.534Z,100.00
2022-12-19T10:18:27.067Z,100.00
2022-12-19T10:21:37.025Z,100.00
2022-12-19T10:24:38.347Z,100.00
2022-12-19T10:27:36.559Z,100.00
2022-12-19T10:30:16.917Z,100.00
2022-12-19T10:33:25.649Z,100.00
2022-12-19T10:36:02.218Z,100.00
2022-12-19T10:38:35.071Z,100.00
2022-12-19T10:44:08.127Z,100.00
2022-12-19T10:54:51.597Z,100.00
2022-12-19T10:57:28.472Z,100.00
2022-12-19T11:00:05.076Z,100.00
2022-12-19T11:02:41.491Z,100.00
2022-12-19T11:05:30.902Z,100.00
2022-12-19T11:08:14.971Z,100.00
2022-12-19T11:12:25.266Z,100.00
2022-12-19T11:18:09.784Z,100.00
2022-12-19T11:22:13.539Z,100.00
2022-12-19T11:29:26.119Z,100.00
2022-12-19T11:29:53.409Z,100.00
2022-12-19T11:30:09.085Z,100.00
2022-12-19T11:30:38.459Z,100.00
2022-12-19T11:32:31.510Z,100.00
2022-12-19T11:34:19.102Z,100.00
2022-12-19T11:37:16.267Z,100.00
2022-12-19T11:39:47.972Z,100.00
2022-12-19T11:42:26.160Z,100.00
2022-12-19T11:45:01.724Z,100.00
2022-12-19T11:47:38.811Z,100.00
2022-12-19T11:50:27.728Z,100.00
2022-12-19T11:53:24.055Z,100.00
2022-12-19T11:56:16.276Z,100.00
2022-12-19T11:58:49.211Z,100.00
2022-12-19T12:01:43.584Z,100.00
2022-12-19T12:04:29.061Z,100.00
2022-12-19T12:06:56.919Z,100.00
2022-12-19T12:13:47.757Z,100.00
2022-12-19T12:20:18.504Z,100.00
2022-12-19T12:25:13.488Z,100.00
2022-12-19T12:31:15.116Z,100.00
2022-12-19T12:31:26.509Z,100.00
2022-12-19T12:31:53.469Z,100.00
2022-12-19T12:32:02.054Z,100.00
2022-12-19T12:38:37.164Z,100.00
2022-12-19T12:41:42.387Z,100.00
2022-12-19T12:44:12.036Z,100.00
2022-12-19T12:47:22.210Z,100.00
2022-12-19T12:50:01.255Z,100.00
2022-12-19T12:52:39.836Z,100.00
2022-12-19T12:55:15.848Z,100.00
2022-12-19T12:57:42.713Z,100.00
2022-12-19T13:00:20.533Z,100.00
2022-12-19T13:02:54.466Z,100.00
2022-12-19T13:05:34.299Z,100.00
2022-12-19T13:08:01.285Z,100.00
2022-12-19T13:10:30.583Z,100.00
2022-12-19T13:13:14.604Z,100.00
2022-12-19T13:15:46.140Z,100.00
2022-12-19T13:18:16.159Z,100.00
2022-12-19T13:20:46.200Z,100.00
2022-12-19T13:23:58.231Z,100.00
2022-12-19T13:26:46.727Z,100.00
2022-12-19T13:29:28.098Z,100.00
2022-12-19T13:32:12.832Z,100.00
2022-12-19T13:34:41.575Z,100.00
2022-12-19T13:39:55.755Z,100.00
2022-12-19T13:40:33.476Z,100.00
2022-12-19T13:43:48.095Z,100.00
2022-12-19T13:46:45.091Z,100.00
2022-12-19T13:49:17.778Z,100.00
2022-12-19T13:51:52.500Z,100.00
2022-12-19T13:54:26.155Z,100.00
2022-12-19T13:56:53.871Z,100.00
2022-12-19T13:59:22.788Z,100.00
2022-12-19T14:01:51.478Z,100.00
2022-12-19T14:04:32.504Z,100.00
2022-12-19T14:07:04.701Z,100.00
2022-12-19T14:11:28.879Z,100.00
2022-12-19T14:13:46.228Z,100.00
2022-12-19T14:15:41.690Z,100.00
2022-12-19T14:18:42.754Z,100.00
2022-12-19T14:22:10.961Z,100.00
2022-12-19T14:24:24.423Z,100.00
2022-12-19T14:28:24.278Z,100.00
2022-12-19T14:30:27.558Z,100.00
2022-12-19T14:33:43.767Z,100.00
2022-12-19T14:36:06.158Z,100.00
2022-12-19T14:39:21.194Z,100.00
2022-12-19T14:41:08.223Z,100.00
2022-12-19T14:43:59.059Z,100.00
2022-12-19T14:54:08.628Z,100.00
2022-12-19T14:54:09.038Z,100.00
2022-12-19T14:54:50.452Z,100.00
2022-12-19T14:56:13.131Z,100.00
2022-12-19T14:58:56.225Z,100.00
2022-12-19T15:01:36.567Z,100.00
2022-12-19T15:04:48.163Z,100.00
2022-12-19T15:07:08.033Z,100.00
2022-12-19T15:11:00.283Z,100.00
2022-12-19T15:14:54.652Z,100.00
2022-12-19T15:16:06.299Z,100.00
2022-12-19T15:18:42.870Z,100.00
2022-12-19T15:21:14.656Z,100.00
2022-12-19T15:23:42.292Z,100.00
2022-12-19T15:26:16.164Z,100.00
2022-12-19T15:28:53.550Z,100.00
2022-12-19T15:31:40.044Z,100.00
2022-12-19T15:34:48.374Z,100.00
2022-12-19T15:37:15.519Z,100.00
2022-12-19T15:39:43.475Z,100.00
2022-12-19T15:42:22.933Z,100.00
2022-12-19T15:44:50.109Z,100.00
2022-12-19T15:47:20.007Z,100.00
2022-12-19T15:49:47.364Z,100.00
2022-12-19T15:52:19.136Z,100.00
2022-12-19T15:54:48.556Z,100.00
2022-12-19T15:57:42.229Z,100.00
2022-12-19T16:00:32.296Z,100.00
2022-12-19T16:03:22.898Z,100.00
2022-12-19T16:05:51.789Z,100.00
2022-12-19T16:08:21.073Z,100.00
2022-12-19T16:10:56.014Z,100.00
2022-12-19T16:13:31.085Z,100.00
2022-12-19T16:15:58.331Z,100.00
2022-12-19T16:18:25.315Z,100.00
2022-12-19T16:20:52.191Z,100.00
2022-12-19T16:23:19.718Z,100.00
2022-12-19T16:25:50.684Z,100.00
2022-12-19T16:28:26.935Z,100.00
2022-12-19T16:30:56.639Z,100.00
2022-12-19T16:33:25.780Z,100.00
2022-12-19T16:36:03.942Z,100.00
2022-12-19T16:38:31.385Z,100.00
2022-12-19T16:40:58.246Z,100.00
2022-12-19T16:43:36.393Z,100.00
2022-12-19T16:46:06.112Z,100.00
2022-12-19T16:48:35.860Z,100.00
2022-12-19T16:51:03.027Z,100.00
2022-12-19T16:53:30.059Z,100.00
2022-12-19T16:55:57.652Z,100.00
2022-12-19T16:58:26.975Z,100.00
2022-12-19T17:00:57.454Z,100.00
2022-12-19T17:03:36.524Z,100.00
2022-12-19T17:06:04.106Z,100.00
2022-12-19T17:08:32.541Z,100.00
2022-12-19T17:10:59.395Z,100.00
2022-12-19T17:13:26.546Z,100.00
2022-12-19T17:15:57.057Z,100.00
2022-12-19T17:18:28.837Z,100.00
2022-12-19T17:20:55.667Z,100.00
2022-12-19T17:23:24.100Z,100.00
2022-12-19T17:25:51.170Z,100.00
2022-12-19T17:28:18.367Z,100.00
2022-12-19T17:30:50.220Z,100.00
2022-12-19T17:33:17.649Z,100.00
2022-12-19T17:35:45.152Z,100.00
2022-12-19T17:38:17.251Z,100.00
2022-12-19T17:40:44.169Z,100.00
2022-12-19T17:43:12.800Z,100.00
2022-12-19T17:45:39.782Z,100.00
2022-12-19T17:48:14.894Z,100.00
2022-12-19T17:50:42.153Z,100.00
2022-12-19T17:53:14.154Z,100.00
2022-12-19T17:55:41.859Z,100.00
2022-12-19T17:58:10.197Z,100.00
2022-12-19T18:00:37.418Z,100.00
2022-12-19T18:03:16.911Z,100.00
2022-12-19T18:05:43.935Z,100.00
2022-12-19T18:08:43.255Z,100.00
2022-12-19T18:11:28.357Z,100.00
2022-12-19T18:13:55.334Z,100.00
2022-12-19T18:16:27.272Z,100.00
2022-12-19T18:18:54.387Z,100.00
2022-12-19T18:21:24.388Z,100.00
2022-12-19T18:23:54.183Z,100.00
2022-12-19T18:26:20.870Z,100.00
2022-12-19T18:28:48.003Z,100.00
2022-12-19T18:31:26.067Z,100.00
2022-12-19T18:33:54.434Z,100.00
2022-12-19T18:36:22.871Z,100.00
2022-12-19T18:38:50.153Z,100.00
2022-12-19T18:41:18.318Z,100.00
2022-12-19T18:43:45.638Z,100.00
2022-12-19T18:46:15.339Z,100.00
2022-12-19T18:48:44.082Z,100.00
2022-12-19T18:51:19.238Z,100.00
2022-12-19T18:53:46.692Z,100.00
2022-12-19T18:56:13.771Z,100.00
2022-12-19T18:58:40.910Z,100.00
2022-12-19T19:01:12.995Z,100.00
2022-12-19T19:03:40.534Z,100.00
2022-12-19T19:06:18.616Z,100.00
2022-12-19T19:08:45.769Z,100.00
2022-12-19T19:11:12.786Z,100.00
2022-12-19T19:13:39.472Z,100.00
2022-12-19T19:16:20.981Z,100.00
2022-12-19T19:18:51.472Z,100.00
2022-12-19T19:21:19.321Z,100.00
2022-12-19T19:23:50.019Z,100.00
2022-12-19T19:26:16.762Z,100.00
2022-12-19T19:28:48.573Z,100.00
2022-12-19T19:31:20.523Z,100.00
2022-12-19T19:33:51.192Z,100.00
2022-12-19T19:36:20.961Z,100.00
2022-12-19T19:38:50.368Z,100.00
2022-12-19T19:41:21.284Z,100.00
2022-12-19T19:43:48.017Z,100.00
2022-12-19T19:46:14.922Z,100.00
2022-12-19T19:48:42.835Z,100.00
2022-12-19T19:51:09.701Z,100.00
2022-12-19T19:53:36.565Z,100.00
2022-12-19T19:56:05.047Z,100.00
2022-12-19T19:58:32.331Z,100.00
2022-12-19T20:00:59.163Z,100.00
2022-12-19T20:03:26.560Z,100.00
2022-12-19T20:06:02.258Z,100.00
2022-12-19T20:08:36.855Z,100.00
2022-12-19T20:11:06.079Z,100.00
2022-12-19T20:13:33.183Z,100.00
2022-12-19T20:16:11.844Z,100.00
2022-12-19T20:18:41.582Z,100.00
2022-12-19T20:21:12.961Z,100.00
2022-12-19T20:23:41.148Z,100.00
2022-12-19T20:26:08.303Z,100.00
2022-12-19T20:28:35.204Z,100.00
2022-12-19T20:31:02.096Z,100.00
2022-12-19T20:33:28.931Z,100.00
2022-12-19T20:35:57.069Z,100.00
2022-12-19T20:38:24.395Z,100.00
2022-12-19T20:40:56.075Z,100.00
2022-12-19T20:43:23.707Z,100.00
2022-12-19T20:45:50.802Z,100.00
2022-12-19T20:48:17.917Z,100.00
2022-12-19T20:50:44.876Z,100.00
2022-12-19T20:53:11.819Z,100.00
2022-12-19T20:55:38.623Z,100.00
2022-12-19T20:58:05.395Z,100.00
2022-12-19T21:00:32.339Z,100.00
2022-12-19T21:03:27.206Z,100.00
2022-12-19T21:05:53.771Z,100.00
2022-12-19T21:08:24.658Z,100.00
2022-12-19T21:10:51.625Z,100.00
2022-12-19T21:13:18.444Z,100.00
2022-12-19T21:15:45.564Z,100.00
2022-12-19T21:18:12.531Z,100.00
2022-12-19T21:20:39.335Z,100.00
2022-12-19T21:23:06.075Z,100.00
2022-12-19T21:25:32.803Z,100.00
2022-12-19T21:27:59.613Z,100.00
2022-12-19T21:30:26.336Z,100.00
2022-12-19T21:32:53.041Z,100.00
2022-12-19T21:35:19.744Z,100.00
2022-12-19T21:37:50.278Z,100.00
2022-12-19T21:40:20.566Z,100.00
2022-12-19T21:42:47.695Z,100.00
2022-12-19T21:45:15.240Z,100.00
2022-12-19T21:47:43.211Z,100.00
2022-12-19T21:50:12.589Z,100.00
2022-12-19T21:52:39.385Z,100.00
2022-12-19T21:55:07.526Z,100.00
2022-12-19T21:57:38.956Z,100.00
2022-12-19T22:00:07.479Z,100.00
2022-12-19T22:02:34.442Z,100.00
2022-12-19T22:05:01.441Z,100.00
2022-12-19T22:07:28.186Z,100.00
2022-12-19T22:09:55.740Z,100.00
2022-12-19T22:12:22.455Z,100.00
2022-12-19T22:14:49.160Z,100.00
2022-12-19T22:17:16.009Z,100.00
2022-12-19T22:19:42.829Z,100.00
2022-12-19T22:22:09.503Z,100.00
2022-12-19T22:24:36.527Z,100.00
2022-12-19T22:27:03.213Z,100.00
2022-12-19T22:29:30.071Z,100.00
2022-12-19T22:31:56.874Z,100.00
2022-12-19T22:34:23.574Z,100.00
2022-12-19T22:36:50.345Z,100.00
2022-12-19T22:39:19.225Z,100.00
2022-12-19T22:41:46.241Z,100.00
2022-12-19T22:44:19.251Z,100.00
2022-12-19T22:46:46.339Z,100.00
2022-12-19T22:49:14.180Z,100.00
2022-12-19T22:51:41.547Z,100.00
2022-12-19T22:54:08.445Z,100.00
2022-12-19T22:56:35.684Z,100.00
2022-12-19T22:59:05.531Z,100.00
2022-12-19T23:01:38.794Z,100.00
2022-12-19T23:04:07.196Z,100.00
2022-12-19T23:06:35.908Z,100.00
2022-12-19T23:09:03.724Z,100.00
2022-12-19T23:11:36.720Z,100.00
2022-12-19T23:14:08.194Z,100.00
2022-12-19T23:16:35.344Z,100.00
2022-12-19T23:19:02.741Z,100.00
2022-12-19T23:21:30.842Z,100.00
2022-12-19T23:23:57.559Z,100.00
2022-12-19T23:26:30.450Z,100.00
2022-12-19T23:29:02.477Z,100.00
2022-12-19T23:31:30.087Z,100.00
2022-12-19T23:33:57.610Z,100.00
2022-12-19T23:36:52.695Z,100.00
2022-12-19T23:39:12.074Z,100.00
2022-12-19T23:41:39.581Z,100.00
2022-12-19T23:44:08.888Z,100.00
2022-12-19T23:46:38.725Z,100.00
2022-12-19T23:49:05.882Z,100.00
2022-12-19T23:51:32.956Z,100.00
2022-12-19T23:53:59.691Z,100.00
2022-12-19T23:56:28.782Z,100.00
2022-12-19T23:58:55.866Z,100.00
